x

North Hecate Strait (46183) Wave Buoy

1:00am - Fri 22nd May 2015 All times are PDT. -7 hours from GMT.

  • Sig Wave height 4.6ft
  • Peak Period 6s
  • Wind
    20mph, 25mph gusts
  • Sea Temp 51°f
  • Air Temp 50°f
  • Sea Pressure 1015.5mb
  • North Hecate Strait
  • North Hecate Strait

More Historic Weather Station data

Upgrade to MSW Pro to gain access to the past 30 days of data for over 8000 Wavebouys and Weather Stations around the globe.

Join Pro

Comparision Forecast

View Surf forecast
   
Fri 05/22 1:00am 4.5ft 6s 20 25 mph 1015.5mb 51f 50f
12:00am 4.5ft 5s 20 25 mph 1015.5mb 51f 51f
Thu 05/21 11:00pm 4ft 6s 20 25 mph 1015.5mb 51f 51f
10:00pm 4ft 6s 18 22 mph 1015.3mb 52f 51f
9:00pm 4ft 5s 16 18 mph 1015.3mb 52f 51f
8:00pm 4ft 5s 18 20 mph 1015mb 51f 52f
7:00pm 3.5ft 5s 20 22 mph 1014.8mb 51f 51f
6:00pm 3.5ft 5s 18 20 mph 1015.1mb 51f 51f
5:00pm 3.5ft 5s 16 20 mph 1015.4mb 51f 51f
4:00pm 3.5ft 5s 16 20 mph 1015.8mb 51f 51f
3:00pm 4ft 5s 18 20 mph 1016.1mb 51f 51f
2:00pm 3.5ft 5s 18 22 mph 1016.4mb 52f 51f
1:00pm 4.5ft 5s 20 22 mph 1016.6mb 52f 51f
12:00pm 4.5ft 5s 18 22 mph 1016.8mb 51f 50f
11:00am 4ft 5s 20 22 mph 1016.9mb 52f 50f
10:00am 4.5ft 5s 22 25 mph 1016.8mb 52f 50f
9:00am  -   -  22
mph
- - 49f
8:00am 4ft 5s 20 22 mph 1016.5mb 52f 50f
7:00am 4ft 5s 16 18 mph 1016.3mb 51f 50f
6:00am 4.5ft 5s 20 22 mph 1016.5mb 51f 49f
5:00am 4.5ft 6s 18 22 mph 1016.7mb 51f 49f
4:00am 4.5ft 5s 18 22 mph 1017.1mb 51f 49f
3:00am 4.5ft 6s 18 25 mph 1017.2mb 51f 49f
2:00am 4.5ft 6s 18 20 mph 1017.3mb 51f 49f
1:00am 3.5ft 5s 18 25 mph 1017.3mb 51f 49f
12:00am 3.5ft 5s 13 18 mph 1017.7mb 52f 50f
Wed 05/20 11:00pm 3.5ft 5s 16 18 mph 1017.9mb 52f 50f
10:00pm 3.5ft 6s 18 22 mph 1017.7mb 52f 50f
8:00pm 3ft 5s 16 18 mph 1017.6mb 52f 51f
7:00pm 3.5ft 5s 16 18 mph 1017.5mb 52f 51f
6:00pm 3.5ft 5s 18 20 mph 1017.6mb 52f 51f
5:00pm 3ft 4s 18 20 mph 1017.9mb 52f 51f
4:00pm 3ft 4s 16 20 mph 1018.3mb 52f 50f
3:00pm 3ft 5s 16 18 mph 1018.8mb 52f 50f
2:00pm 3.5ft 5s 16 20 mph 1019.3mb 52f 50f
1:00pm 3.5ft 5s 16 18 mph 1019.7mb 52f 50f
12:00pm  -   -  18
mph
1020mb 52f 50f
11:00am 3.5ft 5s 18 22 mph 1020.3mb 52f 50f
10:00am  -   -  20
mph
1020.4mb - 50f
9:00am 3.5ft 4s 18 22 mph 1020.3mb 52f 49f
8:00am 3.5ft 5s 18 22 mph 1020.3mb 52f 49f
7:00am 3.5ft 5s 18 22 mph 1020.2mb 52f 49f
6:00am 3.5ft 5s 16 20 mph 1020.1mb 52f 49f
5:00am 4ft 5s 18 22 mph 1019.9mb 52f 49f
4:00am  -   -  18
mph
- - -
3:00am 4ft 5s 18 20 mph 1020.1mb 52f 50f
2:00am 3.5ft 5s 18 22 mph 1020.3mb 52f 50f
1:00am 3.5ft 5s 16 20 mph 1020.6mb 52f 50f
12:00am 3ft 5s 13 18 mph 1020.9mb 52f 50f
Tue 05/19 11:00pm 3.5ft 5s 16 18 mph 1021mb 52f 51f
10:00pm 3.5ft 5s 18 22 mph 1020.9mb 52f 51f
9:00pm 3ft 4s 16 20 mph 1020.9mb 52f 51f
8:00pm 3ft 4s 18 20 mph 1020.9mb 52f 51f
7:00pm 3ft 4s 18 22 mph 1020.8mb 52f 51f
6:00pm 2.5ft 4s 18 20 mph 1020.8mb 52f 51f
5:00pm 2.5ft 4s 16 20 mph 1020.9mb 52f 51f
4:00pm 2.5ft 4s 16 20 mph 1021.3mb 52f 50f
3:00pm 2.5ft 4s 13 18 mph 1021.8mb 52f 50f
2:00pm 2ft 4s 13 16 mph 1021.9mb 52f 51f
1:00pm 2ft 4s 11 16 mph 1022mb 52f 50f
12:00pm 2ft 4s 11 13 mph 1022.3mb 52f 50f
11:00am 2ft 4s 11 16 mph 1022.3mb 52f 50f
10:00am 2ft 4s 11 13 mph 1022.4mb 52f 49f
9:00am 2.5ft 4s 11 13 mph 1022.4mb 52f 49f
8:00am 2.5ft 4s 13 16 mph 1022.4mb 52f 49f
7:00am 2.5ft 4s 13 18 mph 1022.1mb 52f 49f
6:00am 2.5ft 4s 13 16 mph 1021.6mb 52f 49f
5:00am 2ft 4s 13 16 mph 1021.3mb 52f 49f
4:00am 2ft 4s 11 13 mph 1021.2mb 52f 49f
3:00am  -   -  11
mph
1021.1mb 52f 49f
2:00am 2ft 4s 11 13 mph 1021mb 52f 49f
1:00am 2ft 4s 13 18 mph 1021mb 52f 50f
12:00am 2ft 4s 13 18 mph 1020.9mb 53f 49f
Mon 05/18 11:00pm 1.6ft 3s 13 18 mph 1021.3mb 53f 49f
10:00pm 1.3ft 15s 13 16 mph 1021.3mb 53f 49f
9:00pm 1ft 15s 13 18 mph 1021.1mb 53f 50f
8:00pm 1.3ft 13s 9 13 mph 1021mb 53f 50f
7:00pm 1.3ft 15s 9 11 mph 1021mb 53f 50f
6:00pm 1.3ft 16s 4 9 mph 1021mb 53f 50f
5:00pm 1.3ft 15s 2 7 mph 1021.1mb 53f 51f
4:00pm 1.3ft 10s 2 4 mph 1021.2mb 53f 51f
3:00pm 1.3ft 15s 2 4 mph 1021.4mb 53f 51f
2:00pm 1.3ft 15s 2 4 mph 1021.4mb 53f 50f
1:00pm 1.3ft 15s 2
mph
1021.4mb 53f 50f
12:00pm 1.3ft 14s 2 4 mph 1021.4mb 53f 49f
11:00am 1.3ft 4s 4 7 mph 1021.3mb 53f 49f
10:00am 1.6ft 15s 4 7 mph 1021.3mb 52f 49f